LFPM 071700Z AUTO 08005KT 040V100 CAVOK 21/07 Q1024

Les avions qui composent notre flotte

Avion Robin DR400 2+2

L'avion école par excellence

F-GAVN
   * tarif promotionnel appliqué pendant la formation des élèves non brevetés


F-GAVN Planche